createdAt,value
2022-10-22T00:02:47.863Z,9.43
2022-10-22T00:05:50.381Z,10.75
2022-10-22T00:08:53.766Z,9.70
2022-10-22T00:11:55.728Z,8.68
2022-10-22T00:14:58.002Z,9.70
2022-10-22T00:18:00.002Z,9.45
2022-10-22T00:21:02.221Z,9.02
2022-10-22T00:24:05.915Z,9.60
2022-10-22T00:27:10.354Z,10.60
2022-10-22T00:30:12.737Z,12.63
2022-10-22T00:33:14.817Z,12.77
2022-10-22T00:36:17.001Z,13.00
2022-10-22T00:39:21.830Z,13.35
2022-10-22T00:42:28.438Z,14.38
2022-10-22T00:45:30.743Z,13.73
2022-10-22T00:48:33.238Z,13.68
2022-10-22T00:51:35.974Z,13.27
2022-10-22T00:54:39.990Z,13.27
2022-10-22T00:57:42.787Z,15.02
2022-10-22T01:00:45.268Z,13.98
2022-10-22T01:03:47.366Z,15.18
2022-10-22T01:06:49.489Z,14.68
2022-10-22T01:10:03.077Z,14.38
2022-10-22T01:13:26.068Z,14.05
2022-10-22T01:16:37.475Z,13.30
2022-10-22T01:19:59.780Z,14.30
2022-10-22T01:23:16.727Z,13.50
2022-10-22T01:26:28.453Z,13.02
2022-10-22T01:29:37.358Z,13.40
2022-10-22T01:32:46.095Z,14.13
2022-10-22T01:35:49.300Z,13.70
2022-10-22T01:38:52.213Z,14.80
2022-10-22T01:41:55.836Z,15.68
2022-10-22T01:44:59.079Z,15.20
2022-10-22T01:48:13.368Z,14.00
2022-10-22T01:51:44.661Z,14.82
2022-10-22T01:54:52.105Z,15.30
2022-10-22T01:58:05.612Z,15.18
2022-10-22T02:01:17.079Z,15.98
2022-10-22T02:04:23.362Z,15.80
2022-10-22T02:07:30.839Z,14.70
2022-10-22T02:10:33.255Z,13.88
2022-10-22T02:13:41.557Z,14.90
2022-10-22T02:16:47.487Z,15.30
2022-10-22T02:19:54.866Z,14.18
2022-10-22T02:22:57.434Z,14.10
2022-10-22T02:26:03.755Z,15.43
2022-10-22T02:29:12.087Z,14.05
2022-10-22T02:32:20.130Z,13.57
2022-10-22T02:35:25.215Z,13.18
2022-10-22T02:38:28.277Z,13.35
2022-10-22T02:41:31.006Z,13.60
2022-10-22T02:44:33.063Z,13.82
2022-10-22T02:47:36.384Z,14.80
2022-10-22T02:50:38.371Z,14.27
2022-10-22T02:53:40.289Z,15.80
2022-10-22T02:56:42.232Z,15.52
2022-10-22T02:59:44.108Z,14.43
2022-10-22T03:02:47.549Z,15.40
2022-10-22T03:05:51.019Z,14.02
2022-10-22T03:08:53.167Z,14.90
2022-10-22T03:11:55.146Z,14.98
2022-10-22T03:14:57.174Z,14.32
2022-10-22T03:18:00.435Z,14.75
2022-10-22T03:21:09.358Z,14.38
2022-10-22T03:24:15.490Z,14.55
2022-10-22T03:27:20.196Z,15.25
2022-10-22T03:30:22.175Z,14.65
2022-10-22T03:33:25.535Z,15.85
2022-10-22T03:36:27.454Z,16.70
2022-10-22T03:39:33.343Z,17.27
2022-10-22T03:42:35.405Z,16.05
2022-10-22T03:48:41.974Z,15.82
2022-10-22T03:51:43.894Z,16.77
2022-10-22T03:54:45.828Z,15.48
2022-10-22T03:57:47.775Z,12.68
2022-10-22T04:00:49.720Z,10.52
2022-10-22T04:03:53.286Z,6.53
2022-10-22T04:06:55.383Z,3.55
2022-10-22T04:09:57.499Z,2.80
2022-10-22T04:12:59.393Z,2.55
2022-10-22T04:16:07.933Z,2.63
2022-10-22T04:19:11.403Z,3.00
2022-10-22T04:22:13.309Z,2.80
2022-10-22T04:25:15.441Z,3.42
2022-10-22T04:28:17.517Z,2.90
2022-10-22T04:31:22.714Z,2.58
2022-10-22T04:34:28.540Z,2.60
2022-10-22T04:37:30.675Z,2.50
2022-10-22T04:40:32.619Z,2.45
2022-10-22T04:43:34.851Z,2.90
2022-10-22T04:46:37.129Z,2.35
2022-10-22T04:49:40.615Z,2.10
2022-10-22T04:52:42.705Z,2.15
2022-10-22T04:55:44.646Z,1.70
2022-10-22T04:58:48.036Z,1.40
2022-10-22T05:01:49.930Z,1.45
2022-10-22T05:04:53.249Z,1.55
2022-10-22T05:07:55.274Z,1.40
2022-10-22T05:10:57.430Z,1.30
2022-10-22T05:14:01.004Z,0.90
2022-10-22T05:17:02.910Z,1.40
2022-10-22T05:20:08.096Z,1.20
2022-10-22T05:23:10.069Z,1.45
2022-10-22T05:26:13.386Z,1.70
2022-10-22T05:29:15.374Z,1.45
2022-10-22T05:32:17.363Z,2.80
2022-10-22T05:35:20.716Z,3.00
2022-10-22T05:38:23.134Z,4.15
2022-10-22T05:41:28.653Z,5.30
2022-10-22T05:44:30.643Z,5.70
2022-10-22T05:47:32.547Z,5.10
2022-10-22T05:50:37.268Z,5.80
2022-10-22T05:53:41.071Z,5.63
2022-10-22T05:56:43.025Z,5.60
2022-10-22T05:59:45.937Z,5.82
2022-10-22T06:02:50.014Z,5.68
2022-10-22T06:05:54.285Z,5.63
2022-10-22T06:08:59.773Z,5.32
2022-10-22T06:12:02.987Z,5.60
2022-10-22T06:15:06.014Z,5.00
2022-10-22T06:18:08.271Z,4.63
2022-10-22T06:21:13.844Z,4.80
2022-10-22T06:24:16.438Z,4.72
2022-10-22T06:27:18.374Z,4.55
2022-10-22T06:30:20.414Z,4.30
2022-10-22T06:33:22.309Z,4.50
2022-10-22T06:36:25.744Z,4.25
2022-10-22T06:39:27.850Z,4.45
2022-10-22T06:42:29.864Z,4.68
2022-10-22T06:45:31.705Z,4.22
2022-10-22T06:48:33.667Z,4.00
2022-10-22T06:51:37.093Z,3.38
2022-10-22T06:54:39.397Z,3.20
2022-10-22T06:57:41.754Z,2.90
2022-10-22T07:00:43.852Z,2.92
2022-10-22T07:03:46.256Z,2.58
2022-10-22T07:06:49.558Z,2.40
2022-10-22T07:09:51.607Z,2.33
2022-10-22T07:12:53.570Z,2.30
2022-10-22T07:15:55.690Z,2.20
2022-10-22T07:18:57.822Z,1.92
2022-10-22T07:22:01.530Z,2.13
2022-10-22T07:25:07.409Z,1.73
2022-10-22T07:28:09.550Z,1.83
2022-10-22T07:31:13.245Z,1.55
2022-10-22T07:34:15.748Z,1.30
2022-10-22T07:37:19.412Z,1.88
2022-10-22T07:40:21.348Z,2.08
2022-10-22T07:43:23.911Z,1.38
2022-10-22T07:46:26.781Z,1.30
2022-10-22T07:49:28.678Z,1.15
2022-10-22T07:52:32.062Z,3.05
2022-10-22T07:55:34.408Z,4.22
2022-10-22T07:58:36.635Z,2.15
2022-10-22T08:01:38.602Z,1.48
2022-10-22T08:04:40.602Z,0.98
2022-10-22T08:07:43.989Z,1.00
2022-10-22T08:10:47.062Z,0.60
2022-10-22T08:13:49.009Z,0.57
2022-10-22T08:16:51.571Z,0.43
2022-10-22T08:19:53.568Z,0.50
2022-10-22T08:22:57.030Z,0.60
2022-10-22T08:25:58.913Z,0.88
2022-10-22T08:29:00.864Z,1.17
2022-10-22T08:32:02.850Z,2.28
2022-10-22T08:35:05.204Z,2.10
2022-10-22T08:38:08.482Z,1.73
2022-10-22T08:41:13.791Z,1.30
2022-10-22T08:44:42.517Z,0.98
2022-10-22T08:48:02.930Z,0.90
2022-10-22T08:51:05.513Z,1.50
2022-10-22T08:54:19.281Z,1.60
2022-10-22T08:57:39.724Z,0.80
2022-10-22T09:00:45.746Z,1.50
2022-10-22T09:03:52.857Z,1.40
2022-10-22T09:06:57.749Z,0.80
2022-10-22T09:10:03.436Z,0.82
2022-10-22T09:13:05.410Z,1.80
2022-10-22T09:16:16.413Z,0.70
2022-10-22T09:19:25.888Z,0.40
2022-10-22T09:22:38.183Z,0.70
2022-10-22T09:25:43.221Z,2.72
2022-10-22T09:28:50.242Z,1.38
2022-10-22T09:31:52.076Z,1.55
2022-10-22T09:34:57.207Z,0.70
2022-10-22T09:38:07.727Z,0.50
2022-10-22T09:41:11.865Z,0.50
2022-10-22T09:44:13.801Z,0.40
2022-10-22T09:47:42.954Z,0.43
2022-10-22T09:50:58.854Z,0.38
2022-10-22T09:54:05.787Z,0.40
2022-10-22T09:57:15.800Z,0.40
2022-10-22T10:00:19.979Z,0.70
2022-10-22T10:03:24.283Z,0.60
2022-10-22T10:06:26.554Z,0.40
2022-10-22T10:09:31.617Z,0.60
2022-10-22T10:12:43.722Z,1.00
2022-10-22T10:15:55.027Z,0.75
2022-10-22T10:19:10.572Z,0.77
2022-10-22T10:22:24.206Z,0.70
2022-10-22T10:25:41.409Z,0.60
2022-10-22T10:29:01.760Z,0.70
2022-10-22T10:32:23.715Z,0.80
2022-10-22T10:35:31.083Z,0.70
2022-10-22T10:38:43.829Z,0.98
2022-10-22T10:41:56.161Z,0.70
2022-10-22T10:45:13.726Z,0.90
2022-10-22T10:48:32.851Z,1.00
2022-10-22T10:51:42.487Z,0.60
2022-10-22T10:54:52.401Z,0.43
2022-10-22T10:58:06.204Z,1.00
2022-10-22T11:01:18.511Z,0.95
2022-10-22T11:04:45.749Z,1.20
2022-10-22T11:07:55.941Z,1.08
2022-10-22T11:11:03.931Z,0.82
2022-10-22T11:14:14.058Z,1.50
2022-10-22T11:17:18.683Z,1.10
2022-10-22T11:20:25.561Z,1.10
2022-10-22T11:23:33.977Z,1.30
2022-10-22T11:26:44.573Z,2.90
2022-10-22T11:29:53.985Z,1.13
2022-10-22T11:33:01.467Z,1.10
2022-10-22T11:36:06.466Z,1.10
2022-10-22T11:39:30.001Z,1.10
2022-10-22T11:42:34.908Z,1.20
2022-10-22T11:45:38.287Z,0.90
2022-10-22T11:48:41.675Z,0.88
2022-10-22T11:51:44.945Z,1.50
2022-10-22T11:54:46.896Z,1.30
2022-10-22T11:57:48.817Z,1.20
2022-10-22T12:00:50.748Z,2.30
2022-10-22T12:04:21.036Z,1.40
2022-10-22T12:07:33.675Z,1.42
2022-10-22T12:10:49.512Z,1.83
2022-10-22T12:14:01.115Z,1.35
2022-10-22T12:17:09.715Z,1.20
2022-10-22T12:20:14.792Z,1.30
2022-10-22T12:23:17.302Z,1.15
2022-10-22T12:26:24.237Z,1.02
2022-10-22T12:29:26.214Z,1.17
2022-10-22T12:32:33.940Z,1.60
2022-10-22T12:35:44.171Z,1.70
2022-10-22T12:38:47.082Z,1.00
2022-10-22T12:41:49.021Z,1.10
2022-10-22T12:44:55.747Z,1.33
2022-10-22T12:48:00.538Z,1.27
2022-10-22T12:51:05.688Z,1.42
2022-10-22T12:54:10.671Z,1.60
2022-10-22T12:57:15.537Z,1.40
2022-10-22T13:00:24.024Z,0.98
2022-10-22T13:03:32.335Z,1.30
2022-10-22T13:06:35.835Z,1.65
2022-10-22T13:09:39.511Z,1.10
2022-10-22T13:12:48.838Z,1.05
2022-10-22T13:15:50.733Z,0.80
2022-10-22T13:18:53.415Z,1.10
2022-10-22T13:21:56.747Z,1.10
2022-10-22T13:25:03.572Z,0.90
2022-10-22T13:28:19.610Z,0.70
2022-10-22T13:31:25.205Z,0.95
2022-10-22T13:34:27.370Z,0.90
2022-10-22T13:37:33.271Z,1.15
2022-10-22T13:40:35.244Z,1.08
2022-10-22T13:43:37.542Z,1.10
2022-10-22T13:46:39.713Z,1.23
2022-10-22T13:49:41.835Z,1.00
2022-10-22T13:52:47.961Z,1.63
2022-10-22T13:55:50.132Z,1.73
2022-10-22T13:58:52.429Z,1.27
2022-10-22T14:01:54.432Z,1.20
2022-10-22T14:04:56.433Z,1.10
2022-10-22T14:08:01.141Z,0.90
2022-10-22T14:11:03.084Z,0.93
2022-10-22T14:14:05.197Z,1.13
2022-10-22T14:17:13.036Z,0.90
2022-10-22T14:20:17.939Z,1.05
2022-10-22T14:23:23.348Z,1.05
2022-10-22T14:26:27.747Z,1.02
2022-10-22T14:29:29.721Z,0.70
2022-10-22T14:32:31.941Z,0.90
2022-10-22T14:35:34.285Z,0.93
2022-10-22T14:38:37.707Z,1.40
2022-10-22T14:41:40.190Z,1.27
2022-10-22T14:44:42.872Z,1.40
2022-10-22T14:47:44.857Z,1.40
2022-10-22T14:50:47.978Z,1.23
2022-10-22T14:53:51.465Z,1.10
2022-10-22T14:56:53.416Z,1.38
2022-10-22T14:59:55.395Z,1.33
2022-10-22T15:02:59.687Z,1.50
2022-10-22T15:06:04.459Z,1.40
2022-10-22T15:09:08.103Z,1.40
2022-10-22T15:12:10.009Z,1.10
2022-10-22T15:15:12.683Z,1.00
2022-10-22T15:18:14.897Z,1.00
2022-10-22T15:21:19.610Z,1.00
2022-10-22T15:24:23.153Z,1.10
2022-10-22T15:27:25.093Z,1.58
2022-10-22T15:30:27.313Z,1.20
2022-10-22T15:33:29.668Z,1.00
2022-10-22T15:36:32.014Z,1.20
2022-10-22T15:39:35.791Z,1.20
2022-10-22T15:42:38.133Z,1.30
2022-10-22T15:45:41.038Z,0.93
2022-10-22T15:48:43.352Z,1.20
2022-10-22T15:51:45.498Z,1.15
2022-10-22T15:54:49.423Z,1.15
2022-10-22T15:57:54.880Z,1.20
2022-10-22T16:01:04.514Z,2.00
2022-10-22T16:04:07.414Z,2.22
2022-10-22T16:07:09.397Z,3.08
2022-10-22T16:10:15.673Z,2.95
2022-10-22T16:13:18.329Z,2.38
2022-10-22T16:16:21.206Z,2.50
2022-10-22T16:19:24.342Z,2.00
2022-10-22T16:22:26.261Z,2.63
2022-10-22T16:25:29.982Z,3.88
2022-10-22T16:31:39.497Z,5.25
2022-10-22T16:34:41.478Z,4.68
2022-10-22T16:37:44.088Z,4.40
2022-10-22T16:40:47.536Z,4.50
2022-10-22T16:43:51.180Z,3.40
2022-10-22T16:46:53.133Z,2.45
2022-10-22T16:49:55.640Z,2.60
2022-10-22T16:52:58.215Z,2.60
2022-10-22T16:56:02.611Z,2.05
2022-10-22T16:59:07.559Z,1.73
2022-10-22T17:02:10.545Z,2.25
2022-10-22T17:05:12.774Z,2.13
2022-10-22T17:08:15.334Z,2.72
2022-10-22T17:11:21.830Z,2.58
2022-10-22T17:14:27.194Z,2.40
2022-10-22T17:17:30.047Z,2.38
2022-10-22T17:20:33.366Z,2.70
2022-10-22T17:23:36.558Z,3.28
2022-10-22T17:26:40.835Z,4.55
2022-10-22T17:29:43.183Z,5.65
2022-10-22T17:32:46.317Z,5.18
2022-10-22T17:35:48.816Z,3.88
2022-10-22T17:38:53.347Z,3.33
2022-10-22T17:41:57.565Z,3.40
2022-10-22T17:45:00.186Z,3.47
2022-10-22T17:48:03.224Z,3.33
2022-10-22T17:51:07.480Z,3.22
2022-10-22T17:54:10.756Z,2.90
2022-10-22T17:57:15.153Z,2.85
2022-10-22T18:03:25.782Z,1.98
2022-10-22T18:06:30.385Z,1.75
2022-10-22T18:09:36.600Z,1.70
2022-10-22T18:12:41.362Z,1.73
2022-10-22T18:15:44.987Z,2.83
2022-10-22T18:18:48.451Z,4.28
2022-10-22T18:21:51.550Z,4.70
2022-10-22T18:24:54.899Z,4.55
2022-10-22T18:27:59.044Z,4.13
2022-10-22T18:31:06.313Z,7.80
2022-10-22T18:34:09.800Z,7.53
2022-10-22T18:37:13.468Z,5.07
2022-10-22T18:40:15.840Z,2.60
2022-10-22T18:43:20.351Z,2.00
2022-10-22T18:46:24.082Z,2.78
2022-10-22T18:49:27.061Z,2.55
2022-10-22T18:52:31.324Z,2.95
2022-10-22T18:55:34.505Z,3.20
2022-10-22T18:58:42.589Z,3.08
2022-10-22T19:01:45.867Z,1.85
2022-10-22T19:04:48.963Z,1.73
2022-10-22T19:07:51.512Z,2.05
2022-10-22T19:10:53.812Z,4.05
2022-10-22T19:13:58.512Z,4.68
2022-10-22T19:17:00.896Z,2.90
2022-10-22T19:20:04.225Z,2.42
2022-10-22T19:23:07.317Z,2.15
2022-10-22T19:26:11.931Z,2.30
2022-10-22T19:29:19.044Z,2.50
2022-10-22T19:32:21.707Z,2.42
2022-10-22T19:35:26.289Z,2.80
2022-10-22T19:38:28.551Z,2.80
2022-10-22T19:41:32.776Z,1.50
2022-10-22T19:44:36.993Z,2.15
2022-10-22T19:47:39.689Z,3.20
2022-10-22T19:50:43.660Z,3.03
2022-10-22T19:53:48.422Z,2.67
2022-10-22T19:58:10.315Z,2.70
2022-10-22T20:01:14.746Z,2.40
2022-10-22T20:04:18.958Z,2.42
2022-10-22T20:07:21.406Z,2.58
2022-10-22T20:10:24.696Z,2.55
2022-10-22T20:13:28.680Z,2.20
2022-10-22T20:16:31.565Z,1.90
2022-10-22T20:19:33.751Z,2.58
2022-10-22T20:22:36.509Z,1.90
2022-10-22T20:25:41.977Z,1.80
2022-10-22T20:28:46.369Z,1.60
2022-10-22T20:31:49.033Z,1.13
2022-10-22T20:34:51.981Z,1.70
2022-10-22T20:37:54.164Z,1.70
2022-10-22T20:41:01.023Z,1.52
2022-10-22T20:44:04.766Z,1.35
2022-10-22T20:47:07.254Z,1.40
2022-10-22T20:50:12.651Z,1.25
2022-10-22T20:53:16.823Z,1.17
2022-10-22T20:56:19.925Z,0.93
2022-10-22T20:59:23.931Z,0.88
2022-10-22T21:02:26.167Z,0.88
2022-10-22T21:05:28.097Z,1.00
2022-10-22T21:08:30.164Z,1.55
2022-10-22T21:11:32.104Z,1.80
2022-10-22T21:14:35.394Z,0.80
2022-10-22T21:17:37.367Z,0.90
2022-10-22T21:20:39.288Z,1.20
2022-10-22T21:23:41.229Z,0.73
2022-10-22T21:26:44.001Z,0.90
2022-10-22T21:29:47.259Z,0.88
2022-10-22T21:32:49.143Z,1.20
2022-10-22T21:35:51.845Z,0.90
2022-10-22T21:38:54.301Z,1.00
2022-10-22T21:41:56.204Z,0.90
2022-10-22T21:44:59.500Z,1.00
2022-10-22T21:48:01.678Z,0.90
2022-10-22T21:51:07.055Z,0.88
2022-10-22T21:54:09.022Z,1.23
2022-10-22T21:57:11.570Z,1.27
2022-10-22T22:00:16.581Z,1.25
2022-10-22T22:03:18.465Z,1.08
2022-10-22T22:06:22.321Z,1.02
2022-10-22T22:09:24.258Z,0.80
2022-10-22T22:12:26.213Z,1.25
2022-10-22T22:15:29.464Z,1.15
2022-10-22T22:18:32.524Z,0.98
2022-10-22T22:21:35.253Z,1.02
2022-10-22T22:24:37.913Z,0.73
2022-10-22T22:27:40.002Z,3.38
2022-10-22T22:30:44.444Z,0.90
2022-10-22T22:33:46.291Z,0.75
2022-10-22T22:36:48.617Z,1.55
2022-10-22T22:39:50.767Z,6.88
2022-10-22T22:42:52.646Z,6.43
2022-10-22T22:46:00.952Z,3.60
2022-10-22T22:49:06.126Z,2.55
2022-10-22T22:52:09.067Z,4.35
2022-10-22T22:55:11.083Z,3.40
2022-10-22T22:58:12.991Z,2.70
2022-10-22T23:01:19.641Z,1.20
2022-10-22T23:04:21.971Z,1.02
2022-10-22T23:07:23.806Z,1.08
2022-10-22T23:10:25.918Z,0.77
2022-10-22T23:13:27.778Z,1.35
2022-10-22T23:16:33.152Z,1.00
2022-10-22T23:19:35.035Z,1.15
2022-10-22T23:22:36.962Z,0.90
2022-10-22T23:25:38.862Z,0.70
2022-10-22T23:28:41.001Z,1.05
2022-10-22T23:31:45.979Z,1.30
2022-10-22T23:34:47.890Z,1.10
2022-10-22T23:37:49.814Z,0.80
2022-10-22T23:40:54.720Z,0.80
2022-10-22T23:43:56.954Z,0.80
2022-10-22T23:47:00.774Z,1.02
2022-10-22T23:50:02.736Z,0.90
2022-10-22T23:53:05.147Z,1.10
2022-10-22T23:56:08.788Z,1.00
2022-10-22T23:59:11.028Z,0.90
